Aviation Digital Data Service (ADDS)

Output produced by METARs form (0454 UTC 24 July 2016)
found at http://aviationweather.gov/adds/metars/
 
KILG 232320Z 2400/2424 VRB04KT P6SM SCT100 
     FM240500 VRB02KT P6SM SKC 
     FM241800 22007KT P6SM SCT200